Time;durP1;ratioP1;P1;durP2;ratioP2;P2;SDS_P1;SDS_P2;PMS_P1;PMS_P2;Temp;Humidity;BMP_temperature;BMP_pressure;BME280_temperature;BME280_humidity;BME280_pressure;Samples;Min_cycle;Max_cycle;Signal;HPM_P1;HPM_P2
2022/08/17 00:00:20;;;;;;;4.03;3.50;;;;;;;21.57;nan;99818.66;5066277;28;20458;-65
2022/08/17 00:03:04;;;;;;;4.28;3.35;;;;;;;21.56;nan;99827.78;5064010;28;20275;-65
2022/08/17 00:05:32;;;;;;;3.65;3.22;;;;;;;21.55;nan;99831.56;5063061;28;20091;-65
2022/08/17 00:07:58;;;;;;;4.18;3.25;;;;;;;21.56;nan;99823.22;5060175;28;20051;-65
2022/08/17 00:10:23;;;;;;;5.00;3.63;;;;;;;21.54;nan;99819.94;5074127;28;20400;-65
2022/08/17 00:12:49;;;;;;;4.57;3.58;;;;;;;21.55;nan;99821.59;5074731;28;20048;-65
2022/08/17 00:15:15;;;;;;;4.53;3.40;;;;;;;21.52;nan;99816.69;5065584;28;20370;-65
2022/08/17 00:17:41;;;;;;;4.40;3.55;;;;;;;21.51;nan;99823.13;5068332;28;20043;-65
2022/08/17 00:20:08;;;;;;;4.15;3.70;;;;;;;21.52;nan;99826.63;5063312;28;20033;-65
2022/08/17 00:22:33;;;;;;;4.70;3.45;;;;;;;21.49;nan;99829.81;5077328;28;20063;-65
2022/08/17 00:24:59;;;;;;;4.10;3.70;;;;;;;21.51;nan;99820.44;5072075;28;20048;-65
2022/08/17 00:27:24;;;;;;;4.38;3.63;;;;;;;21.50;nan;99813.44;5064082;28;20039;-64
2022/08/17 00:29:50;;;;;;;4.30;3.53;;;;;;;21.53;nan;99821.03;5072519;28;20106;-65
2022/08/17 00:32:16;;;;;;;5.15;3.60;;;;;;;21.51;nan;99819.63;5067949;28;20124;-65
2022/08/17 00:34:41;;;;;;;4.25;3.40;;;;;;;21.49;nan;99811.00;5067330;28;20128;-65
2022/08/17 00:37:06;;;;;;;4.93;3.38;;;;;;;21.48;nan;99812.06;5063313;28;20040;-65
2022/08/17 00:39:32;;;;;;;4.03;3.17;;;;;;;21.45;nan;99816.00;5073027;28;20047;-65
2022/08/17 00:41:57;;;;;;;4.75;3.40;;;;;;;21.49;nan;99816.38;5072519;28;20282;-65
2022/08/17 00:44:22;;;;;;;4.78;3.72;;;;;;;21.51;nan;99814.25;5068962;28;20089;-65
2022/08/17 00:46:48;;;;;;;3.97;3.40;;;;;;;21.50;nan;99815.28;5062037;28;20082;-65
2022/08/17 00:49:15;;;;;;;3.90;3.50;;;;;;;21.52;nan;99815.88;5070217;28;20040;-65
2022/08/17 00:51:46;;;;;;;4.43;3.47;;;;;;;21.52;nan;99815.88;5074679;28;20033;-64
2022/08/17 00:54:17;;;;;;;;;;;;;;;21.47;nan;99816.59;5061153;28;20032;-65
2022/08/17 00:56:50;;;;;;;8.57;3.22;;;;;;;21.40;nan;99813.25;5060332;28;20396;-65
2022/08/17 00:59:18;;;;;;;4.30;3.28;;;;;;;21.35;nan;99808.53;5066496;28;20086;-64
2022/08/17 01:01:44;;;;;;;3.85;3.45;;;;;;;21.33;nan;99808.00;5060078;28;20063;-64
2022/08/17 01:04:11;;;;;;;3.92;3.45;;;;;;;21.34;nan;99808.81;5065612;28;20044;-64
2022/08/17 01:06:38;;;;;;;5.82;3.30;;;;;;;21.32;nan;99811.72;5066023;28;20041;-65
2022/08/17 01:09:03;;;;;;;4.60;3.58;;;;;;;21.27;nan;99814.31;5067516;28;20098;-65
2022/08/17 01:11:31;;;;;;;4.03;3.50;;;;;;;21.24;nan;99812.13;5071906;28;20131;-65
2022/08/17 01:13:56;;;;;;;4.15;3.40;;;;;;;21.20;nan;99811.75;5069597;28;20241;-65
2022/08/17 01:16:27;;;;;;;3.22;2.78;;;;;;;21.14;nan;99819.97;5060732;28;20067;-65
2022/08/17 01:19:00;;;;;;;3.60;3.08;;;;;;;21.06;nan;99813.09;5068894;28;20131;-65
2022/08/17 01:21:45;;;;;;;4.65;3.60;;;;;;;21.06;nan;99817.66;5069752;28;20068;-64
2022/08/17 01:24:11;;;;;;;4.70;3.03;;;;;;;21.02;nan;99819.19;5067367;28;20438;-66
2022/08/17 01:26:38;;;;;;;3.92;3.33;;;;;;;20.94;nan;99817.69;5071422;28;20044;-64
2022/08/17 01:29:05;;;;;;;4.15;3.63;;;;;;;20.90;nan;99809.28;5070288;28;20330;-65
2022/08/17 01:31:36;;;;;;;4.32;3.45;;;;;;;20.88;nan;99810.56;5071250;28;20396;-64
2022/08/17 01:34:06;;;;;;;4.60;3.30;;;;;;;20.89;nan;99807.66;5066124;28;20050;-64
2022/08/17 01:36:31;;;;;;;4.50;2.92;;;;;;;20.90;nan;99819.22;5069644;28;20472;-65
2022/08/17 01:38:56;;;;;;;4.10;3.60;;;;;;;20.89;nan;99812.22;5065036;28;20080;-64
2022/08/17 01:41:23;;;;;;;3.85;3.08;;;;;;;20.93;nan;99814.19;5069671;28;20098;-65
2022/08/17 01:43:55;;;;;;;4.00;3.38;;;;;;;20.93;nan;99816.88;5064329;28;20025;-65
2022/08/17 01:46:25;;;;;;;3.22;2.92;;;;;;;20.93;nan;99811.50;5068282;28;20493;-65
2022/08/17 01:48:52;;;;;;;5.82;3.42;;;;;;;20.91;nan;99818.19;5065303;28;20032;-64
2022/08/17 01:51:18;;;;;;;3.83;3.35;;;;;;;20.90;nan;99808.47;5070048;28;20315;-65
2022/08/17 01:53:49;;;;;;;4.93;3.55;;;;;;;20.88;nan;99810.56;5065688;28;20037;-65
2022/08/17 01:56:18;;;;;;;4.43;3.03;;;;;;;20.81;nan;99681.75;5071072;28;20037;-64
2022/08/17 01:58:44;;;;;;;3.95;3.25;;;;;;;20.82;nan;99656.50;5069501;28;20055;-65
2022/08/17 02:01:11;;;;;;;4.10;3.13;;;;;;;20.83;nan;99663.47;5070331;28;20127;-65
2022/08/17 02:03:37;;;;;;;4.10;2.90;;;;;;;20.86;nan;99700.66;5082449;28;20043;-65
2022/08/17 02:06:04;;;;;;;4.65;3.17;;;;;;;20.82;nan;99667.25;5067544;28;20086;-65
2022/08/17 02:08:34;;;;;;;4.05;3.55;;;;;;;20.81;nan;99671.00;5063670;28;20420;-65
2022/08/17 02:11:02;;;;;;;4.40;3.30;;;;;;;20.81;nan;99659.41;5068515;28;20599;-64
2022/08/17 02:13:28;;;;;;;3.88;3.28;;;;;;;20.81;nan;99660.25;5061123;28;20043;-65
2022/08/17 02:15:55;;;;;;;4.30;3.10;;;;;;;20.81;nan;99649.50;5063134;28;20036;-65
2022/08/17 02:18:20;;;;;;;4.05;2.97;;;;;;;20.82;nan;99661.06;5070856;28;20039;-65
2022/08/17 02:20:46;;;;;;;3.95;3.13;;;;;;;20.81;nan;99654.88;5063129;28;20040;-65
2022/08/17 02:23:12;;;;;;;4.57;3.47;;;;;;;20.79;nan;99662.34;5075868;28;20036;-65
2022/08/17 02:25:41;;;;;;;4.28;3.20;;;;;;;20.83;nan;99663.47;5063925;28;20311;-65
2022/08/17 02:28:06;;;;;;;3.45;2.75;;;;;;;20.86;nan;99667.59;5066965;28;20036;-65
2022/08/17 02:30:32;;;;;;;4.70;2.95;;;;;;;20.87;nan;99691.50;5074419;28;20040;-65
2022/08/17 02:32:57;;;;;;;3.50;3.20;;;;;;;20.89;nan;99630.28;5063963;28;20036;-65
2022/08/17 02:35:23;;;;;;;3.25;2.75;;;;;;;20.91;nan;99670.38;5059716;28;20041;-65
2022/08/17 02:37:50;;;;;;;2.90;2.40;;;;;;;20.88;nan;99671.66;5067713;28;20507;-65
2022/08/17 02:40:15;;;;;;;4.25;2.50;;;;;;;20.89;nan;99675.16;5066466;28;20047;-64
2022/08/17 02:42:43;;;;;;;2.83;2.60;;;;;;;20.89;nan;99675.97;5062813;28;20052;-64
2022/08/17 02:45:11;;;;;;;3.47;2.53;;;;;;;;;;5064165;28;20037;-65
2022/08/17 02:47:36;;;;;;;3.65;2.65;;;;;;;;;;5070685;28;20041;-65
2022/08/17 02:50:04;;;;;;;3.53;2.77;;;;;;;20.82;nan;99687.94;5064318;28;20032;-65
2022/08/17 02:52:38;;;;;;;2.80;2.50;;;;;;;20.75;nan;99667.38;5066652;28;20034;-65
2022/08/17 02:55:10;;;;;;;4.15;3.00;;;;;;;20.74;nan;99673.81;5068154;28;20067;-65
2022/08/17 02:57:35;;;;;;;3.70;3.35;;;;;;;20.77;nan;99670.63;5063680;28;20105;-65
2022/08/17 03:00:04;;;;;;;6.40;3.47;;;;;;;20.81;nan;99767.72;5058282;28;20040;-65
2022/08/17 03:02:29;;;;;;;3.75;3.22;;;;;;;20.83;nan;99668.03;5062377;28;20040;-64
2022/08/17 03:04:54;;;;;;;4.40;3.00;;;;;;;;;;5060621;28;20390;-65
2022/08/17 03:07:20;;;;;;;2.80;2.45;;;;;;;;;;5066651;28;20298;-65
2022/08/17 03:09:45;;;;;;;2.60;2.40;;;;;;;;;;5058527;28;20036;-65
2022/08/17 03:12:12;;;;;;;2.27;2.03;;;;;;;20.52;nan;99646.78;5071256;28;20397;-65
2022/08/17 03:14:38;;;;;;;3.35;2.90;;;;;;;;;;5073171;28;20849;-65
2022/08/17 03:17:03;;;;;;;2.95;2.65;;;;;;;20.36;nan;99674.38;5069152;28;20048;-65
2022/08/17 03:19:29;;;;;;;2.88;2.53;;;;;;;20.30;nan;99675.31;5070632;28;20040;-65
2022/08/17 03:21:54;;;;;;;2.90;2.60;;;;;;;;;;5070506;28;20040;-65
2022/08/17 03:24:19;;;;;;;3.77;3.20;;;;;;;20.07;nan;99671.63;5070757;28;20036;-65
2022/08/17 03:26:44;;;;;;;5.72;3.53;;;;;;;20.04;nan;99655.97;5068933;28;20048;-65
2022/08/17 03:29:17;;;;;;;3.33;2.90;;;;;;;20.03;nan;99648.97;5070080;28;20041;-65
2022/08/17 03:31:43;;;;;;;4.13;3.60;;;;;;;19.99;nan;99671.97;5062450;28;20040;-65
2022/08/17 03:34:08;;;;;;;5.20;3.35;;;;;;;19.97;nan;99660.63;5064039;28;20047;-65
2022/08/17 03:36:33;;;;;;;4.22;3.83;;;;;;;19.92;nan;99657.84;5058893;28;20493;-65
2022/08/17 03:38:59;;;;;;;5.50;4.50;;;;;;;19.88;nan;99657.50;5067947;28;20094;-65
2022/08/17 03:41:24;;;;;;;4.93;4.20;;;;;;;;;;5068976;28;20033;-64
2022/08/17 03:43:49;;;;;;;4.10;3.67;;;;;;;19.87;nan;99671.16;5068318;28;20314;-65
2022/08/17 03:57:11;;;;;;;5.15;3.83;;;;;;;19.75;nan;99748.13;5068004;28;20039;-64
2022/08/17 03:59:37;;;;;;;4.00;3.60;;;;;;;19.79;nan;99647.38;5067311;28;20445;-64
2022/08/17 04:02:08;;;;;;;5.10;3.90;;;;;;;19.79;nan;99647.38;5070754;28;20044;-64
2022/08/17 04:04:35;;;;;;;4.10;3.42;;;;;;;19.74;nan;99640.03;5069727;28;20110;-64
2022/08/17 04:07:00;;;;;;;3.72;3.33;;;;;;;19.76;nan;99629.88;5075979;28;20059;-64
2022/08/17 04:09:26;;;;;;;4.25;3.35;;;;;;;19.79;nan;99644.69;5068632;28;20064;-65
2022/08/17 04:11:52;;;;;;;4.47;3.35;;;;;;;19.86;nan;99626.59;5062803;28;20519;-65
2022/08/17 04:14:17;;;;;;;5.30;3.95;;;;;;;20.02;nan;99733.22;5068011;28;20036;-64
2022/08/17 04:16:43;;;;;;;5.68;3.95;;;;;;;20.19;nan;99641.22;5068570;28;20036;-64
2022/08/17 04:19:08;;;;;;;5.10;4.30;;;;;;;20.34;nan;99638.88;5070687;28;20066;-65
2022/08/17 04:21:33;;;;;;;4.32;3.92;;;;;;;20.43;nan;99642.84;5065758;28;20047;-64
2022/08/17 04:23:59;;;;;;;5.47;3.83;;;;;;;;;;5066985;28;20051;-65
2022/08/17 04:26:24;;;;;;;3.67;3.30;;;;;;;20.52;nan;99672.78;5072068;28;20040;-64
2022/08/17 04:28:50;;;;;;;5.15;4.60;;;;;;;20.45;nan;99709.72;5071544;28;20047;-65
2022/08/17 04:31:15;;;;;;;6.05;5.20;;;;;;;20.31;nan;99736.03;5070399;28;20063;-65
2022/08/17 04:33:44;;;;;;;5.90;5.15;;;;;;;20.17;nan;99740.00;5065582;28;20860;-65
2022/08/17 04:36:12;;;;;;;7.78;6.30;;;;;;;20.07;nan;99748.59;5068620;28;20104;-65
2022/08/17 04:38:40;;;;;;;6.38;5.70;;;;;;;19.99;nan;99751.66;5064347;28;20037;-65
2022/08/17 04:43:53;;;;;;;8.45;5.68;;;;;;;19.87;nan;99757.00;5063224;28;20144;-64
2022/08/17 04:46:20;;;;;;;9.20;6.00;;;;;;;;;;5066109;28;20075;-64
2022/08/17 04:48:49;;;;;;;11.85;6.65;;;;;;;19.59;nan;99763.78;5057293;28;20040;-65
2022/08/17 04:51:18;;;;;;;8.80;6.07;;;;;;;19.58;nan;99747.94;5067355;28;20037;-64
2022/08/17 04:53:46;;;;;;;6.45;5.25;;;;;;;19.62;nan;99739.22;5062936;28;20040;-65
2022/08/17 04:56:15;;;;;;;7.72;5.80;;;;;;;19.70;nan;99784.50;5068574;28;20080;-65
2022/08/17 04:58:46;;;;;;;5.93;5.35;;;;;;;19.84;nan;99758.28;5071083;28;20381;-67
2022/08/17 05:01:12;;;;;;;5.10;4.60;;;;;;;19.97;nan;99784.06;5063035;28;20047;-65
2022/08/17 05:03:38;;;;;;;5.82;4.60;;;;;;;20.09;nan;99776.88;5074867;28;20036;-65
2022/08/17 05:06:04;;;;;;;7.53;5.93;;;;;;;20.20;nan;99771.72;5068390;28;20048;-64
2022/08/17 05:08:29;;;;;;;6.63;5.78;;;;;;;;;;5077261;28;20462;-64
2022/08/17 05:10:54;;;;;;;6.07;5.07;;;;;;;20.47;nan;99761.31;5072364;28;20032;-64
2022/08/17 05:13:23;;;;;;;4.60;4.20;;;;;;;20.66;nan;99781.63;5053477;28;20033;-64
2022/08/17 05:15:51;;;;;;;6.57;5.03;;;;;;;;;;5068706;28;20052;-65
2022/08/17 05:18:17;;;;;;;6.57;5.82;;;;;;;21.07;nan;99795.09;5069765;28;20082;-64
2022/08/17 05:20:42;;;;;;;8.02;5.78;;;;;;;21.23;nan;99780.88;5072950;28;20039;-65
2022/08/17 05:23:11;;;;;;;5.05;4.40;;;;;;;21.38;nan;99786.56;5074022;28;20039;-64
2022/08/17 05:25:39;;;;;;;7.88;5.38;;;;;;;21.52;nan;99788.97;5069771;28;20029;-64
2022/08/17 05:28:05;;;;;;;7.75;5.88;;;;;;;21.65;nan;99777.91;5069567;28;20035;-65
2022/08/17 05:30:32;;;;;;;5.85;4.78;;;;;;;21.70;nan;99796.84;5070438;28;20060;-65
2022/08/17 05:33:20;;;;;;;5.30;4.80;;;;;;;21.90;nan;99795.53;5066964;28;20100;-64
2022/08/17 05:35:48;;;;;;;8.27;5.43;;;;;;;22.01;nan;99915.81;5065134;28;20124;-65
2022/08/17 05:38:17;;;;;;;5.65;4.93;;;;;;;22.10;nan;99929.69;5065345;28;20082;-65
2022/08/17 05:40:43;;;;;;;4.95;4.13;;;;;;;22.10;nan;99918.94;5070887;28;20454;-65
2022/08/17 05:43:11;;;;;;;6.90;4.70;;;;;;;22.20;nan;99935.25;5065606;28;20040;-64
2022/08/17 05:46:06;;;;;;;6.90;4.90;;;;;;;22.21;nan;99926.94;5064365;28;20541;-65
2022/08/17 05:49:07;;;;;;;7.97;5.88;;;;;;;22.14;nan;99936.22;5048119;28;20068;-64
2022/08/17 05:51:50;;;;;;;5.75;5.10;;;;;;;22.16;nan;99931.41;5052378;28;20056;-65
2022/08/17 05:54:54;;;;;;;5.82;4.57;;;;;;;22.25;nan;99946.13;5073410;28;20178;-63
2022/08/17 05:57:28;;;;;;;7.50;4.55;;;;;;;22.37;nan;99943.38;4995154;28;20030;-64
2022/08/17 06:00:13;;;;;;;4.85;4.28;;;;;;;22.49;nan;99946.81;5055504;28;20041;-64
2022/08/17 06:03:03;;;;;;;6.53;5.28;;;;;;;22.65;nan;99935.22;5069184;28;20044;-64
2022/08/17 06:05:49;;;;;;;5.70;5.03;;;;;;;22.92;nan;99942.63;5076068;28;20048;-65
2022/08/17 06:08:36;;;;;;;8.05;6.00;;;;;;;23.23;nan;99937.69;5064608;28;20036;-64
2022/08/17 06:11:07;;;;;;;6.13;5.28;;;;;;;23.49;nan;99946.91;5065741;28;20425;-64
2022/08/17 06:13:58;;;;;;;7.63;6.25;;;;;;;23.56;nan;99935.94;5062843;28;20051;-63
2022/08/17 06:16:28;;;;;;;8.32;5.55;;;;;;;23.54;nan;99928.88;5071094;28;20614;-64
2022/08/17 06:19:03;;;;;;;6.83;5.20;;;;;;;23.57;nan;99911.38;5072509;28;20045;-65
2022/08/17 06:21:34;;;;;;;6.93;5.60;;;;;;;23.47;nan;99908.56;5064204;28;20296;-63
2022/08/17 06:24:19;;;;;;;5.85;4.82;;;;;;;23.51;nan;99904.31;5074722;28;20029;-64
2022/08/17 06:26:45;;;;;;;6.43;4.68;;;;;;;23.80;nan;99926.50;5069254;28;20044;-65
2022/08/17 06:29:16;;;;;;;6.95;4.93;;;;;;;23.95;nan;99917.75;5070992;28;20169;-63
2022/08/17 06:31:42;;;;;;;11.73;7.43;;;;;;;23.84;nan;99908.75;5061557;28;20041;-65
2022/08/17 06:34:09;;;;;;;9.23;6.40;;;;;;;23.91;nan;99903.16;5070765;28;20035;-67
2022/08/17 06:36:55;;;;;;;6.65;5.50;;;;;;;24.30;nan;99903.75;5070241;28;20397;-66
2022/08/17 06:39:46;;;;;;;8.82;5.93;;;;;;;24.59;nan;99896.16;5067172;28;20039;-65
2022/08/17 06:42:26;;;;;;;7.35;6.00;;;;;;;24.77;nan;99897.63;5060726;28;20367;-66
2022/08/17 06:45:09;;;;;;;8.85;6.38;;;;;;;24.70;nan;99897.06;5068236;28;20120;-65
2022/08/17 06:47:53;;;;;;;9.05;6.70;;;;;;;24.61;nan;99897.81;5070973;28;20048;-65
2022/08/17 06:50:21;;;;;;;9.25;5.88;;;;;;;24.67;nan;99896.75;5068542;28;20467;-65
2022/08/17 06:53:25;;;;;;;6.38;5.53;;;;;;;24.86;nan;99905.25;5062401;28;20043;-65
2022/08/17 06:56:20;;;;;;;7.50;5.43;;;;;;;24.92;nan;99910.44;5068393;28;20097;-65
2022/08/17 06:58:47;;;;;;;7.70;5.68;;;;;;;24.92;nan;99917.72;5062110;28;20377;-65
2022/08/17 07:01:25;;;;;;;9.32;5.93;;;;;;;24.86;nan;99924.19;5069046;28;20072;-65
2022/08/17 07:04:14;;;;;;;8.13;5.72;;;;;;;24.75;nan;99934.94;5068089;28;20039;-65
2022/08/17 07:10:10;;;;;;;6.32;5.38;;;;;;;24.47;nan;99943.38;4985655;28;20104;-66
2022/08/17 07:12:39;;;;;;;7.68;5.90;;;;;;;24.40;nan;99940.03;5056342;28;20051;-65
2022/08/17 07:15:19;;;;;;;6.35;5.00;;;;;;;24.34;nan;99931.91;5067808;28;20123;-65
2022/08/17 07:17:46;;;;;;;5.97;4.22;;;;;;;24.30;nan;99919.97;5067736;28;20060;-65
2022/08/17 07:20:16;;;;;;;6.40;4.40;;;;;;;24.32;nan;99920.53;5070159;28;20067;-65
2022/08/17 07:22:54;;;;;;;4.63;3.55;;;;;;;24.37;nan;99939.47;5069963;28;20394;-65
2022/08/17 07:25:20;;;;;;;6.93;3.90;;;;;;;24.31;nan;99943.22;5078422;28;20029;-65
2022/08/17 07:27:54;;;;;;;4.22;3.80;;;;;;;24.19;nan;99941.75;5073499;28;20044;-65
2022/08/17 07:30:27;;;;;;;5.13;4.15;;;;;;;24.06;nan;99942.97;5071436;28;20035;-65
2022/08/17 07:32:58;;;;;;;6.15;4.10;;;;;;;23.98;nan;99946.13;5081166;28;20466;-65
2022/08/17 07:35:28;;;;;;;4.83;3.73;;;;;;;23.94;nan;99938.53;5069179;28;20079;-65
2022/08/17 07:38:16;;;;;;;6.20;3.95;;;;;;;23.93;nan;99950.44;5075406;28;20317;-65
2022/08/17 07:41:00;;;;;;;4.40;3.83;;;;;;;23.93;nan;99961.22;5084644;28;20032;-65
2022/08/17 07:43:38;;;;;;;7.10;3.92;;;;;;;23.95;nan;99950.16;5072630;28;20043;-65
2022/08/17 07:49:08;;;;;;;7.25;4.40;;;;;;;23.69;nan;99967.94;5064114;28;20090;-65
2022/08/17 07:51:41;;;;;;;7.40;4.57;;;;;;;23.49;nan;99961.22;5074712;28;20036;-65
2022/08/17 07:54:21;;;;;;;4.90;4.35;;;;;;;23.39;nan;99960.28;5063197;28;20311;-65
2022/08/17 07:56:55;;;;;;;5.60;4.20;;;;;;;23.52;nan;99959.91;5071229;28;20068;-65
2022/08/17 07:59:24;;;;;;;7.55;4.65;;;;;;;23.67;nan;99937.69;5065377;28;20033;-65
2022/08/17 08:01:56;;;;;;;6.75;4.13;;;;;;;23.76;nan;99951.56;5072251;28;20105;-65
2022/08/17 08:04:26;;;;;;;5.53;4.10;;;;;;;23.90;nan;99950.09;5072499;28;20055;-65
2022/08/17 08:06:54;;;;;;;5.38;4.32;;;;;;;24.05;nan;99954.84;5080694;28;20433;-65
2022/08/17 08:09:40;;;;;;;6.03;4.72;;;;;;;24.24;nan;99958.00;5080406;28;20107;-65
2022/08/17 08:12:24;;;;;;;5.30;3.92;;;;;;;24.53;nan;99956.69;5073742;28;20120;-67
2022/08/17 08:14:56;;;;;;;6.72;4.18;;;;;;;24.74;nan;99954.94;5071642;28;20072;-65
2022/08/17 08:17:25;;;;;;;4.88;4.00;;;;;;;24.82;nan;99952.84;5072683;28;20173;-65
2022/08/17 08:19:50;;;;;;;6.68;4.10;;;;;;;24.94;nan;99956.16;5071178;28;20032;-65
2022/08/17 08:22:29;;;;;;;8.20;4.65;;;;;;;25.03;nan;99970.81;5072373;28;20246;-65
2022/08/17 08:25:19;;;;;;;7.72;5.10;;;;;;;24.86;nan;99983.66;5070658;28;20385;-65
2022/08/17 08:27:55;;;;;;;6.67;5.07;;;;;;;24.70;nan;99985.47;5079630;28;20404;-65
2022/08/17 08:30:22;;;;;;;7.90;4.53;;;;;;;24.55;nan;99988.84;5070480;28;20028;-65
2022/08/17 08:33:21;;;;;;;6.20;4.25;;;;;;;24.35;nan;99986.75;5071119;28;20194;-65
2022/08/17 08:35:58;;;;;;;5.30;4.30;;;;;;;24.24;nan;99988.56;5052227;28;20427;-64
2022/08/17 08:38:44;;;;;;;6.70;4.00;;;;;;;24.19;nan;99985.78;5071305;28;20497;-65
2022/08/17 08:41:12;;;;;;;5.35;4.07;;;;;;;24.10;nan;99982.75;5078324;28;20040;-65
2022/08/17 08:44:06;;;;;;;7.30;3.75;;;;;;;23.86;nan;99976.81;5076012;28;20032;-65
2022/08/17 08:46:34;;;;;;;5.07;3.88;;;;;;;23.86;nan;99984.06;5073877;28;20044;-65
2022/08/17 08:49:33;;;;;;;6.55;4.20;;;;;;;23.90;nan;99977.09;5062022;28;20037;-65
2022/08/17 08:52:01;;;;;;;4.85;4.05;;;;;;;23.98;nan;99975.84;5069369;28;20040;-65
2022/08/17 08:54:50;;;;;;;3.95;3.30;;;;;;;23.81;nan;99971.38;5062785;28;20045;-65
2022/08/17 08:57:21;;;;;;;4.30;3.67;;;;;;;23.38;nan;99975.63;5063640;28;20037;-65
2022/08/17 09:00:06;;;;;;;5.20;3.30;;;;;;;23.14;nan;99987.72;5072587;28;20055;-65
2022/08/17 09:02:48;;;;;;;4.43;3.40;;;;;;;23.50;nan;99967.44;5068980;28;20033;-65
2022/08/17 09:05:46;;;;;;;4.65;2.97;;;;;;;23.83;nan;99969.19;5071635;28;20397;-65
2022/08/17 09:08:22;;;;;;;4.70;3.25;;;;;;;24.04;nan;99969.44;5070267;28;20056;-66
2022/08/17 09:10:52;;;;;;;5.88;3.33;;;;;;;24.14;nan;99964.94;5073793;28;20064;-65
2022/08/17 09:13:40;;;;;;;5.82;3.42;;;;;;;24.30;nan;99962.38;5070838;28;20049;-65
2022/08/17 09:16:21;;;;;;;4.13;3.42;;;;;;;24.23;nan;99972.59;5070929;28;20059;-66
2022/08/17 09:18:52;;;;;;;5.93;3.53;;;;;;;24.45;nan;99972.50;5069293;28;20044;-66
2022/08/17 09:21:36;;;;;;;4.03;3.20;;;;;;;24.79;nan;99965.00;5070821;28;20032;-66
2022/08/17 09:24:34;;;;;;;6.07;3.50;;;;;;;25.08;nan;99956.53;5065809;28;20541;-65
2022/08/17 09:27:08;;;;;;;5.75;4.60;;;;;;;25.06;nan;99939.72;5028518;28;20222;-66
2022/08/17 09:29:40;;;;;;;6.07;4.32;;;;;;;24.96;nan;99932.38;5079869;28;20033;-65
2022/08/17 09:32:27;;;;;;;;;;;;;;;24.88;nan;99924.72;5072543;28;20024;-65
2022/08/17 09:34:59;;;;;;;12.35;6.30;;;;;;;24.97;nan;99953.72;5063218;28;19940;-65
2022/08/17 09:37:31;;;;;;;8.38;5.15;;;;;;;25.11;nan;99956.78;5070196;28;20047;-65
2022/08/17 09:40:09;;;;;;;7.85;4.70;;;;;;;25.21;nan;99939.81;5075856;28;20128;-65
2022/08/17 09:42:48;;;;;;;8.18;4.68;;;;;;;25.16;nan;99951.41;5069668;28;20040;-65
2022/08/17 09:45:49;;;;;;;4.63;3.65;;;;;;;25.32;nan;99970.47;5077429;28;20259;-65
2022/08/17 09:48:56;;;;;;;6.10;3.60;;;;;;;25.49;nan;99973.78;5059909;28;20393;-65
2022/08/17 09:51:47;;;;;;;4.45;3.50;;;;;;;25.71;nan;99992.56;5058200;28;20036;-65
2022/08/17 09:54:22;;;;;;;3.58;2.63;;;;;;;25.88;nan;99997.78;5069545;28;20029;-65
2022/08/17 09:56:47;;;;;;;4.38;3.28;;;;;;;26.05;nan;100000.28;5069198;28;20036;-65
2022/08/17 09:59:34;;;;;;;6.40;3.60;;;;;;;26.21;nan;100012.78;5069071;28;20040;-65
2022/08/17 10:02:29;;;;;;;5.15;3.20;;;;;;;26.40;nan;100020.41;5070345;28;20119;-66
2022/08/17 10:05:08;;;;;;;3.95;3.20;;;;;;;26.64;nan;100010.69;5068443;28;20504;-65
2022/08/17 10:07:49;;;;;;;3.28;2.72;;;;;;;26.77;nan;100017.47;5072224;28;20047;-65
2022/08/17 10:10:20;;;;;;;;;;;;;;;26.98;nan;100001.16;5066643;28;20088;-66
2022/08/17 10:12:48;;;;;;;4.07;3.63;;;;;;;27.23;nan;100003.06;5053435;28;19924;-66
2022/08/17 10:15:29;;;;;;;3.97;3.30;;;;;;;27.62;nan;100018.69;5069068;28;20170;-66
2022/08/17 10:18:11;;;;;;;4.25;3.30;;;;;;;27.85;nan;100034.38;5068075;28;20426;-66
2022/08/17 10:20:47;;;;;;;5.47;3.60;;;;;;;27.68;nan;100015.69;5068972;28;20037;-66
2022/08/17 10:26:14;;;;;;;5.20;3.75;;;;;;;27.09;nan;100046.22;5072886;28;20040;-66
2022/08/17 10:28:54;;;;;;;5.97;3.85;;;;;;;26.91;nan;100036.75;5076118;28;20516;-66
2022/08/17 10:31:51;;;;;;;8.30;3.70;;;;;;;26.74;nan;100028.03;5061831;28;20093;-65
2022/08/17 10:34:47;;;;;;;5.85;3.85;;;;;;;26.48;nan;100012.56;5061387;28;20333;-66
2022/08/17 10:37:18;;;;;;;5.43;3.72;;;;;;;26.37;nan;100034.50;5076317;28;20434;-66
2022/08/17 10:39:47;;;;;;;;;;;;;;;26.27;nan;100060.50;5081913;28;20501;-65
2022/08/17 10:42:28;;;;;;;4.90;3.53;;;;;;;26.29;nan;100073.81;5063624;28;19923;-66
2022/08/17 10:45:00;;;;;;;8.00;4.50;;;;;;;25.89;nan;100083.41;5073691;28;20042;-65
2022/08/17 10:47:58;;;;;;;9.50;5.05;;;;;;;25.09;nan;100079.88;5067627;28;20060;-66
2022/08/17 10:50:54;;;;;;;5.45;4.07;;;;;;;25.13;nan;100084.50;5061107;28;20040;-66
2022/08/17 10:53:32;;;;;;;7.13;4.50;;;;;;;25.36;nan;100079.81;5066067;28;20068;-65
2022/08/17 10:56:17;;;;;;;4.45;3.55;;;;;;;25.50;nan;100078.28;5067719;28;20040;-65
2022/08/17 10:58:56;;;;;;;5.43;4.10;;;;;;;25.42;nan;100084.19;5065923;28;20048;-66
2022/08/17 11:01:47;;;;;;;6.55;3.58;;;;;;;24.92;nan;100090.84;5054756;28;20453;-66
2022/08/17 11:04:36;;;;;;;6.10;4.70;;;;;;;24.89;nan;100091.34;5071188;28;20039;-66
2022/08/17 11:07:24;;;;;;;5.78;4.28;;;;;;;24.95;nan;100083.00;5070910;28;20548;-65
2022/08/17 11:10:00;;;;;;;7.32;4.63;;;;;;;25.25;nan;100080.84;5079350;28;20085;-65
2022/08/17 11:12:36;;;;;;;5.82;4.68;;;;;;;25.48;nan;100074.22;5068295;28;20039;-66
2022/08/17 11:15:22;;;;;;;5.78;4.10;;;;;;;25.71;nan;100083.81;5071388;28;20258;-65
2022/08/17 11:18:04;;;;;;;5.13;3.83;;;;;;;25.93;nan;100086.38;5058647;28;20087;-66
2022/08/17 11:21:05;;;;;;;5.75;4.70;;;;;;;26.00;nan;100098.59;5066837;28;20583;-65
2022/08/17 11:23:52;;;;;;;4.95;4.43;;;;;;;26.10;nan;100099.72;5042578;28;20412;-65
2022/08/17 11:26:24;;;;;;;5.38;4.40;;;;;;;26.21;nan;100096.78;5064421;28;20040;-66
2022/08/17 11:28:55;;;;;;;9.13;3.97;;;;;;;26.24;nan;100093.56;5073961;28;20059;-65
2022/08/17 11:31:31;;;;;;;4.75;3.75;;;;;;;26.61;nan;100091.78;5067584;28;20258;-64
2022/08/17 11:34:03;;;;;;;5.53;4.15;;;;;;;27.10;nan;100099.38;5070057;28;20136;-64
2022/08/17 11:37:13;;;;;;;6.28;4.40;;;;;;;27.46;nan;100099.38;5059354;28;20567;-65
2022/08/17 11:40:04;;;;;;;5.35;3.97;;;;;;;27.69;nan;100093.34;5006715;28;20558;-64
2022/08/17 11:42:47;;;;;;;5.22;3.85;;;;;;;28.57;nan;100088.38;5004473;28;20064;-64
2022/08/17 11:45:31;;;;;;;5.65;3.55;;;;;;;29.39;nan;100090.44;5047047;28;20040;-64
2022/08/17 11:53:36;;;;;;;3.38;3.05;;;;;;;29.75;nan;100101.81;5063840;28;20063;-64
2022/08/17 11:56:06;;;;;;;5.30;3.30;;;;;;;30.42;nan;100111.91;5069540;28;20072;-65
2022/08/17 11:58:41;;;;;;;5.38;3.13;;;;;;;30.71;nan;100095.38;5067262;28;20041;-64
2022/08/17 12:01:21;;;;;;;4.25;3.22;;;;;;;30.61;nan;100101.00;5053925;28;20128;-65
2022/08/17 12:03:53;;;;;;;3.88;3.25;;;;;;;30.23;nan;100101.75;5070183;28;20067;-66
2022/08/17 12:06:51;;;;;;;3.92;3.33;;;;;;;29.75;nan;100090.91;5071971;28;20056;-64
2022/08/17 12:09:23;;;;;;;4.97;3.13;;;;;;;29.52;nan;100086.25;5059612;28;20067;-64
2022/08/17 12:12:15;;;;;;;3.55;3.25;;;;;;;29.43;nan;100086.03;5062946;28;20033;-65
2022/08/17 12:14:48;;;;;;;4.25;3.53;;;;;;;29.57;nan;100088.91;5070968;28;20047;-65
2022/08/17 12:17:19;;;;;;;6.97;3.80;;;;;;;29.62;nan;100092.38;5072085;28;20043;-65
2022/08/17 12:19:44;;;;;;;;;;;;;;;29.50;nan;100096.59;5070697;28;20191;-66
2022/08/17 12:22:24;;;;;;;6.05;3.85;;;;;;;29.61;nan;100100.84;5077839;28;19998;-67
2022/08/17 12:25:12;;;;;;;5.20;3.55;;;;;;;29.73;nan;100087.66;5071151;28;20035;-65
2022/08/17 12:27:45;;;;;;;6.30;3.88;;;;;;;29.89;nan;100084.75;5072178;28;20401;-65
2022/08/17 12:30:13;;;;;;;5.63;3.35;;;;;;;29.98;nan;100083.00;5072226;28;20035;-65
2022/08/17 12:32:39;;;;;;;3.92;3.42;;;;;;;29.84;nan;100072.00;5080471;28;20033;-65
2022/08/17 12:35:18;;;;;;;5.65;3.72;;;;;;;29.49;nan;100065.03;5070650;28;20397;-65
2022/08/17 12:37:47;;;;;;;4.18;3.13;;;;;;;29.32;nan;100062.72;5070325;28;20044;-65
2022/08/17 12:40:21;;;;;;;3.92;3.40;;;;;;;29.49;nan;100062.31;5073266;28;20029;-66
2022/08/17 12:42:54;;;;;;;3.97;3.10;;;;;;;29.67;nan;100071.66;5075396;28;20417;-65
2022/08/17 12:45:38;;;;;;;3.47;3.03;;;;;;;29.78;nan;100063.06;5070687;28;20116;-65
2022/08/17 12:48:07;;;;;;;3.40;3.00;;;;;;;29.78;nan;100057.63;5072949;28;20124;-65
2022/08/17 12:50:35;;;;;;;3.92;3.40;;;;;;;29.56;nan;100051.88;5064801;28;20036;-65
2022/08/17 12:53:01;;;;;;;4.45;3.60;;;;;;;29.40;nan;100045.78;5062591;28;20032;-65
2022/08/17 12:55:27;;;;;;;4.60;3.67;;;;;;;29.43;nan;100039.75;5074320;28;20040;-65